createdAt,value
2017-02-02T00:00:08.529Z,1012.46
2017-02-02T00:01:21.418Z,1012.49
2017-02-02T00:02:34.422Z,1012.47
2017-02-02T00:03:47.464Z,1012.43
2017-02-02T00:05:00.466Z,1012.49
2017-02-02T00:06:13.460Z,1012.5
2017-02-02T00:07:26.486Z,1012.5
2017-02-02T00:08:39.519Z,1012.51
2017-02-02T00:09:52.547Z,1012.54
2017-02-02T00:11:05.190Z,1012.56
2017-02-02T00:12:17.810Z,1012.59
2017-02-02T00:13:30.824Z,1012.61
2017-02-02T00:14:43.834Z,1012.63
2017-02-02T00:15:56.816Z,1012.61
2017-02-02T00:17:09.865Z,1012.6
2017-02-02T00:18:22.894Z,1012.56
2017-02-02T00:19:35.910Z,1012.6
2017-02-02T00:20:48.907Z,1012.62
2017-02-02T00:22:01.959Z,1012.63
2017-02-02T00:23:14.595Z,1012.61
2017-02-02T00:24:27.624Z,1012.57
2017-02-02T00:25:40.646Z,1012.56
2017-02-02T00:26:53.660Z,1012.54
2017-02-02T00:28:06.661Z,1012.54
2017-02-02T00:29:19.653Z,1012.49
2017-02-02T00:30:32.650Z,1012.48
2017-02-02T00:31:45.690Z,1012.5
2017-02-02T00:32:58.695Z,1012.47
2017-02-02T00:34:11.569Z,1012.53
2017-02-02T00:35:24.578Z,1012.49
2017-02-02T00:36:37.621Z,1012.51
2017-02-02T00:37:50.653Z,1012.52
2017-02-02T00:39:03.651Z,1012.56
2017-02-02T00:40:16.891Z,1012.59
2017-02-02T00:41:29.916Z,1012.55
2017-02-02T00:42:42.938Z,1012.52
2017-02-02T00:43:55.979Z,1012.55
2017-02-02T00:45:08.628Z,1012.49
2017-02-02T00:46:21.671Z,1012.48
2017-02-02T00:47:34.659Z,1012.49
2017-02-02T00:48:47.717Z,1012.47
2017-02-02T00:50:00.764Z,1012.43
2017-02-02T00:51:13.384Z,1012.37
2017-02-02T00:52:26.430Z,1012.35
2017-02-02T00:53:39.442Z,1012.34
2017-02-02T00:54:52.446Z,1012.31
2017-02-02T00:56:05.070Z,1012.28
2017-02-02T00:57:16.913Z,1012.3
2017-02-02T00:58:29.925Z,1012.3
2017-02-02T00:59:42.956Z,1012.25
2017-02-02T01:00:55.971Z,1012.21
2017-02-02T01:02:08.613Z,1012.16
2017-02-02T01:03:21.617Z,1012.16
2017-02-02T01:04:34.636Z,1012.13
2017-02-02T01:05:47.632Z,1012.15
2017-02-02T01:07:00.877Z,1012.17
2017-02-02T01:08:13.893Z,1012.16
2017-02-02T01:09:26.948Z,1012.14
2017-02-02T01:10:39.981Z,1012.14
2017-02-02T01:11:52.988Z,1012.11
2017-02-02T01:13:05.624Z,1012.13
2017-02-02T01:14:18.656Z,1012.12
2017-02-02T01:15:31.669Z,1012.18
2017-02-02T01:16:44.668Z,1012.2
2017-02-02T01:17:57.693Z,1012.21
2017-02-02T01:19:09.557Z,1012.24
2017-02-02T01:20:22.201Z,1012.24
2017-02-02T01:21:35.219Z,1012.22
2017-02-02T01:22:48.248Z,1012.23
2017-02-02T01:24:01.294Z,1012.22
2017-02-02T01:25:14.341Z,1012.26
2017-02-02T01:26:26.998Z,1012.28
2017-02-02T01:27:40.006Z,1012.28
2017-02-02T01:28:53.296Z,1012.28
2017-02-02T01:30:06.301Z,1012.23
2017-02-02T01:31:19.343Z,1012.2
2017-02-02T01:32:32.348Z,1012.19
2017-02-02T01:33:45.411Z,1012.15
2017-02-02T01:34:58.432Z,1012.1
2017-02-02T01:36:11.082Z,1012.15
2017-02-02T01:37:24.123Z,1012.13
2017-02-02T01:38:37.166Z,1012.1
2017-02-02T01:39:50.436Z,1012.07
2017-02-02T01:41:03.483Z,1012.04
2017-02-02T01:42:16.511Z,1011.97
2017-02-02T01:43:29.553Z,1012
2017-02-02T01:44:42.592Z,1011.99
2017-02-02T01:45:55.598Z,1011.93
2017-02-02T01:47:08.233Z,1011.95
2017-02-02T01:48:20.857Z,1011.92
2017-02-02T01:49:33.903Z,1011.9
2017-02-02T01:50:46.921Z,1011.88
2017-02-02T01:51:59.945Z,1011.87
2017-02-02T01:53:12.991Z,1011.83
2017-02-02T01:54:26.024Z,1011.84
2017-02-02T01:55:39.040Z,1011.77
2017-02-02T01:56:52.038Z,1011.77
2017-02-02T01:58:05.081Z,1011.74
2017-02-02T01:59:17.720Z,1011.67
2017-02-02T02:00:30.712Z,1011.7
2017-02-02T02:01:43.967Z,1011.69
2017-02-02T02:02:57.013Z,1011.63
2017-02-02T02:04:10.012Z,1011.61
2017-02-02T02:05:23.009Z,1011.59
2017-02-02T02:06:36.038Z,1011.58
2017-02-02T02:07:49.047Z,1011.54
2017-02-02T02:09:02.045Z,1011.5
2017-02-02T02:10:15.081Z,1011.46
2017-02-02T02:11:28.108Z,1011.44
2017-02-02T02:12:41.126Z,1011.43
2017-02-02T02:13:54.128Z,1011.44
2017-02-02T02:15:07.138Z,1011.36
2017-02-02T02:16:20.144Z,1011.37
2017-02-02T02:17:33.139Z,1011.29
2017-02-02T02:18:46.162Z,1011.32
2017-02-02T02:19:59.183Z,1011.36
2017-02-02T02:21:11.829Z,1011.42
2017-02-02T02:22:24.467Z,1011.42
2017-02-02T02:23:37.495Z,1011.44
2017-02-02T02:24:50.493Z,1011.44
2017-02-02T02:26:03.489Z,1011.43
2017-02-02T02:27:16.531Z,1011.41
2017-02-02T02:28:29.526Z,1011.42
2017-02-02T02:29:42.542Z,1011.43
2017-02-02T02:30:55.572Z,1011.41
2017-02-02T02:32:08.233Z,1011.46
2017-02-02T02:33:21.268Z,1011.45
2017-02-02T02:34:34.289Z,1011.44
2017-02-02T02:35:47.297Z,1011.43
2017-02-02T02:37:00.296Z,1011.44
2017-02-02T02:38:13.317Z,1011.46
2017-02-02T02:39:26.318Z,1011.47
2017-02-02T02:40:39.310Z,1011.5
2017-02-02T02:41:52.307Z,1011.53
2017-02-02T02:43:05.319Z,1011.54
2017-02-02T02:44:18.351Z,1011.58
2017-02-02T02:45:31.372Z,1011.57
2017-02-02T02:46:44.396Z,1011.6
2017-02-02T02:47:57.386Z,1011.59
2017-02-02T02:49:10.412Z,1011.52
2017-02-02T02:50:23.468Z,1011.5
2017-02-02T02:51:36.490Z,1011.49
2017-02-02T02:52:49.544Z,1011.51
2017-02-02T02:54:02.581Z,1011.49
2017-02-02T02:55:15.588Z,1011.44
2017-02-02T02:56:27.848Z,1011.43
2017-02-02T02:57:40.851Z,1011.37
2017-02-02T02:58:53.853Z,1011.34
2017-02-02T03:00:06.848Z,1011.33
2017-02-02T03:01:19.870Z,1011.27
2017-02-02T03:02:32.878Z,1011.25
2017-02-02T03:03:45.885Z,1011.23
2017-02-02T03:04:58.905Z,1011.21
2017-02-02T03:06:11.948Z,1011.18
2017-02-02T03:07:24.973Z,1011.14
2017-02-02T03:08:37.989Z,1011.1
2017-02-02T03:09:50.639Z,1011.08
2017-02-02T03:11:03.655Z,1011.09
2017-02-02T03:12:16.663Z,1011.06
2017-02-02T03:13:29.948Z,1011.1
2017-02-02T03:14:42.966Z,1011.06
2017-02-02T03:15:55.964Z,1011.06
2017-02-02T03:17:08.203Z,1011.03
2017-02-02T03:18:21.511Z,1010.97
2017-02-02T03:19:34.528Z,1010.98
2017-02-02T03:20:47.549Z,1010.97
2017-02-02T03:22:00.573Z,1010.96
2017-02-02T03:23:13.193Z,1011.01
2017-02-02T03:24:26.214Z,1010.95
2017-02-02T03:25:39.265Z,1010.93
2017-02-02T03:26:52.284Z,1010.97
2017-02-02T03:28:05.299Z,1010.96
2017-02-02T03:29:18.319Z,1010.97
2017-02-02T03:30:31.359Z,1010.99
2017-02-02T03:31:44.364Z,1011.03
2017-02-02T03:32:57.428Z,1011.02
2017-02-02T03:34:10.459Z,1011.03
2017-02-02T03:35:23.465Z,1011.03
2017-02-02T03:36:36.119Z,1010.98
2017-02-02T03:37:49.110Z,1011
2017-02-02T03:39:02.133Z,1010.96
2017-02-02T03:40:15.177Z,1011.02
2017-02-02T03:41:28.212Z,1011.09
2017-02-02T03:42:41.252Z,1011.1
2017-02-02T03:43:54.266Z,1011.09
2017-02-02T03:45:07.291Z,1011.09
2017-02-02T03:46:20.312Z,1011.09
2017-02-02T03:47:33.309Z,1011.07
2017-02-02T03:48:46.306Z,1011.07
2017-02-02T03:49:59.328Z,1011.01
2017-02-02T03:51:12.220Z,1010.91
2017-02-02T03:52:24.870Z,1010.94
2017-02-02T03:53:37.866Z,1010.9
2017-02-02T03:54:50.886Z,1010.92
2017-02-02T03:56:03.920Z,1010.9
2017-02-02T03:57:16.945Z,1010.91
2017-02-02T03:58:29.225Z,1010.89
2017-02-02T03:59:42.241Z,1010.89
2017-02-02T04:00:55.258Z,1010.9
2017-02-02T04:02:07.908Z,1010.93
2017-02-02T04:03:20.547Z,1010.91
2017-02-02T04:04:33.551Z,1010.89
2017-02-02T04:05:46.562Z,1010.92
2017-02-02T04:06:59.576Z,1010.86
2017-02-02T04:08:12.244Z,1010.86
2017-02-02T04:09:24.887Z,1010.81
2017-02-02T04:10:37.903Z,1010.85
2017-02-02T04:11:50.925Z,1010.82
2017-02-02T04:13:03.951Z,1010.79
2017-02-02T04:14:16.992Z,1010.82
2017-02-02T04:15:30.030Z,1010.84
2017-02-02T04:16:43.060Z,1010.81
2017-02-02T04:17:56.075Z,1010.82
2017-02-02T04:19:08.701Z,1010.81
2017-02-02T04:20:21.700Z,1010.86
2017-02-02T04:21:34.721Z,1010.79
2017-02-02T04:22:47.784Z,1010.8
2017-02-02T04:24:00.884Z,1010.83
2017-02-02T04:25:13.904Z,1010.81
2017-02-02T04:26:26.946Z,1010.86
2017-02-02T04:27:39.553Z,1010.87
2017-02-02T04:28:52.571Z,1010.83
2017-02-02T04:30:05.591Z,1010.88
2017-02-02T04:31:18.605Z,1010.85
2017-02-02T04:32:31.247Z,1010.83
2017-02-02T04:33:44.293Z,1010.91
2017-02-02T04:34:57.328Z,1010.87
2017-02-02T04:36:10.348Z,1010.86
2017-02-02T04:37:23.340Z,1010.86
2017-02-02T04:38:36.360Z,1010.82
2017-02-02T04:39:49.030Z,1010.8
2017-02-02T04:41:01.669Z,1010.81
2017-02-02T04:42:14.696Z,1010.82
2017-02-02T04:43:27.697Z,1010.82
2017-02-02T04:44:40.739Z,1010.8
2017-02-02T04:45:53.743Z,1010.79
2017-02-02T04:47:06.783Z,1010.77
2017-02-02T04:48:19.801Z,1010.77
2017-02-02T04:49:32.797Z,1010.73
2017-02-02T04:50:45.793Z,1010.7
2017-02-02T04:51:58.697Z,1010.79
2017-02-02T04:53:11.690Z,1010.8
2017-02-02T04:54:24.723Z,1010.77
2017-02-02T04:55:37.723Z,1010.78
2017-02-02T04:56:50.744Z,1010.77
2017-02-02T04:58:03.796Z,1010.75
2017-02-02T04:59:16.810Z,1010.72
2017-02-02T05:00:29.842Z,1010.73
2017-02-02T05:01:42.856Z,1010.73
2017-02-02T05:02:55.893Z,1010.63
2017-02-02T05:04:08.480Z,1010.67
2017-02-02T05:05:21.520Z,1010.69
2017-02-02T05:06:34.536Z,1010.63
2017-02-02T05:07:47.822Z,1010.63
2017-02-02T05:09:00.833Z,1010.6
2017-02-02T05:10:13.473Z,1010.53
2017-02-02T05:11:26.501Z,1010.56
2017-02-02T05:12:39.128Z,1010.49
2017-02-02T05:13:52.189Z,1010.48
2017-02-02T05:15:05.214Z,1010.47
2017-02-02T05:16:17.839Z,1010.49
2017-02-02T05:17:30.882Z,1010.45
2017-02-02T05:18:43.918Z,1010.5
2017-02-02T05:19:56.968Z,1010.48
2017-02-02T05:21:09.619Z,1010.46
2017-02-02T05:22:22.235Z,1010.43
2017-02-02T05:23:35.283Z,1010.41
2017-02-02T05:24:48.299Z,1010.4
2017-02-02T05:26:01.323Z,1010.37
2017-02-02T05:27:13.586Z,1010.37
2017-02-02T05:28:26.225Z,1010.4
2017-02-02T05:29:39.265Z,1010.38
2017-02-02T05:30:52.262Z,1010.42
2017-02-02T05:32:05.277Z,1010.39
2017-02-02T05:33:17.928Z,1010.4
2017-02-02T05:34:30.944Z,1010.39
2017-02-02T05:35:43.972Z,1010.4
2017-02-02T05:36:56.977Z,1010.4
2017-02-02T05:38:10.025Z,1010.41
2017-02-02T05:39:23.045Z,1010.36
2017-02-02T05:40:36.350Z,1010.4
2017-02-02T05:41:49.369Z,1010.38
2017-02-02T05:43:02.416Z,1010.43
2017-02-02T05:44:15.433Z,1010.46
2017-02-02T05:45:28.432Z,1010.45
2017-02-02T05:46:41.449Z,1010.46
2017-02-02T05:47:54.453Z,1010.37
2017-02-02T05:49:07.492Z,1010.38
2017-02-02T05:50:20.519Z,1010.36
2017-02-02T05:51:33.560Z,1010.3
2017-02-02T05:52:46.560Z,1010.38
2017-02-02T05:53:59.581Z,1010.37
2017-02-02T05:55:12.624Z,1010.33
2017-02-02T05:56:25.640Z,1010.31
2017-02-02T05:57:38.295Z,1010.31
2017-02-02T05:58:51.312Z,1010.27
2017-02-02T06:00:04.337Z,1010.28
2017-02-02T06:01:17.357Z,1010.31
2017-02-02T06:02:30.349Z,1010.27
2017-02-02T06:03:43.347Z,1010.23
2017-02-02T06:04:56.391Z,1010.25
2017-02-02T06:06:09.417Z,1010.27
2017-02-02T06:07:22.438Z,1010.28
2017-02-02T06:08:35.424Z,1010.32
2017-02-02T06:09:48.449Z,1010.29
2017-02-02T06:11:01.470Z,1010.27
2017-02-02T06:12:14.494Z,1010.25
2017-02-02T06:13:27.528Z,1010.25
2017-02-02T06:14:40.500Z,1010.22
2017-02-02T06:15:53.504Z,1010.18
2017-02-02T06:17:06.122Z,1010.13
2017-02-02T06:18:19.166Z,1010.18
2017-02-02T06:19:32.184Z,1010.14
2017-02-02T06:20:45.190Z,1010.1
2017-02-02T06:21:58.208Z,1010.07
2017-02-02T06:23:11.230Z,1010.08
2017-02-02T06:24:24.250Z,1010.08
2017-02-02T06:25:37.248Z,1010.09
2017-02-02T06:26:50.241Z,1010.09
2017-02-02T06:28:03.259Z,1010.15
2017-02-02T06:29:15.501Z,1010.13
2017-02-02T06:30:28.107Z,1010.15
2017-02-02T06:31:41.106Z,1010.15
2017-02-02T06:32:54.130Z,1010.12
2017-02-02T06:34:07.135Z,1010.11
2017-02-02T06:35:20.144Z,1010.1
2017-02-02T06:36:33.158Z,1010.13
2017-02-02T06:37:46.204Z,1010.14
2017-02-02T06:38:59.220Z,1010.16
2017-02-02T06:40:12.239Z,1010.18
2017-02-02T06:41:24.896Z,1010.19
2017-02-02T06:42:37.909Z,1010.16
2017-02-02T06:43:50.908Z,1010.14
2017-02-02T06:45:03.930Z,1010.13
2017-02-02T06:46:16.946Z,1010.13
2017-02-02T06:47:29.997Z,1010.11
2017-02-02T06:48:43.018Z,1010.09
2017-02-02T06:49:56.067Z,1010.09
2017-02-02T06:51:09.077Z,1010.16
2017-02-02T06:52:22.080Z,1010.12
2017-02-02T06:53:35.122Z,1010.16
2017-02-02T06:54:48.152Z,1010.15
2017-02-02T06:56:01.177Z,1010.03
2017-02-02T06:57:13.793Z,1010.06
2017-02-02T06:58:26.835Z,1010.03
2017-02-02T06:59:39.839Z,1009.97
2017-02-02T07:00:52.472Z,1009.91
2017-02-02T07:02:05.497Z,1009.93
2017-02-02T07:03:17.748Z,1009.94
2017-02-02T07:04:30.366Z,1009.92
2017-02-02T07:05:43.389Z,1009.93
2017-02-02T07:06:56.406Z,1009.9
2017-02-02T07:08:09.422Z,1009.87
2017-02-02T07:09:22.443Z,1009.88
2017-02-02T07:10:35.073Z,1009.79
2017-02-02T07:11:48.093Z,1009.82
2017-02-02T07:13:01.110Z,1009.84
2017-02-02T07:14:13.713Z,1009.87
2017-02-02T07:15:26.349Z,1009.86
2017-02-02T07:16:39.340Z,1009.82
2017-02-02T07:17:52.365Z,1009.81
2017-02-02T07:19:05.408Z,1009.83
2017-02-02T07:20:18.032Z,1009.8
2017-02-02T07:21:31.082Z,1009.8
2017-02-02T07:22:43.724Z,1009.78
2017-02-02T07:23:56.748Z,1009.83
2017-02-02T07:25:09.776Z,1009.85
2017-02-02T07:26:22.841Z,1009.89
2017-02-02T07:27:35.490Z,1009.95
2017-02-02T07:28:48.501Z,1009.93
2017-02-02T07:30:01.537Z,1009.98
2017-02-02T07:31:14.552Z,1010.06
2017-02-02T07:32:27.569Z,1010.03
2017-02-02T07:33:40.186Z,1010.02
2017-02-02T07:34:53.203Z,1010.02
2017-02-02T07:36:05.825Z,1010.03
2017-02-02T07:37:18.120Z,1009.99
2017-02-02T07:38:31.150Z,1009.94
2017-02-02T07:39:43.774Z,1009.98
2017-02-02T07:40:56.794Z,1009.93
2017-02-02T07:42:09.836Z,1009.91
2017-02-02T07:43:22.855Z,1009.92
2017-02-02T07:44:35.908Z,1009.86
2017-02-02T07:45:48.900Z,1009.91
2017-02-02T07:47:01.967Z,1009.92
2017-02-02T07:48:14.968Z,1009.89
2017-02-02T07:49:27.997Z,1009.9
2017-02-02T07:50:41.036Z,1009.92
2017-02-02T07:51:53.654Z,1009.9
2017-02-02T07:53:06.295Z,1009.84
2017-02-02T07:54:19.320Z,1009.85
2017-02-02T07:55:32.346Z,1009.88
2017-02-02T07:56:45.367Z,1009.84
2017-02-02T07:57:58.390Z,1009.82
2017-02-02T07:59:11.038Z,1009.83
2017-02-02T08:00:24.053Z,1009.84
2017-02-02T08:01:37.099Z,1009.8
2017-02-02T08:02:50.138Z,1009.79
2017-02-02T08:04:03.163Z,1009.76
2017-02-02T08:05:16.153Z,1009.83
2017-02-02T08:06:28.779Z,1009.76
2017-02-02T08:07:41.796Z,1009.75
2017-02-02T08:08:54.816Z,1009.77
2017-02-02T08:10:07.819Z,1009.79
2017-02-02T08:11:20.080Z,1009.8
2017-02-02T08:12:33.137Z,1009.8
2017-02-02T08:13:46.154Z,1009.8
2017-02-02T08:14:59.152Z,1009.77
2017-02-02T08:16:12.215Z,1009.8
2017-02-02T08:17:25.262Z,1009.8
2017-02-02T08:18:37.518Z,1009.76
2017-02-02T08:19:50.551Z,1009.79
2017-02-02T08:21:03.588Z,1009.73
2017-02-02T08:22:16.605Z,1009.77
2017-02-02T08:23:29.625Z,1009.77
2017-02-02T08:24:42.625Z,1009.72
2017-02-02T08:25:55.665Z,1009.71
2017-02-02T08:27:08.686Z,1009.65
2017-02-02T08:28:21.704Z,1009.65
2017-02-02T08:29:34.704Z,1009.67
2017-02-02T08:30:47.351Z,1009.6
2017-02-02T08:32:00.374Z,1009.64
2017-02-02T08:33:13.388Z,1009.68
2017-02-02T08:34:26.413Z,1009.66
2017-02-02T08:35:39.431Z,1009.65
2017-02-02T08:36:52.438Z,1009.66
2017-02-02T08:38:05.455Z,1009.63
2017-02-02T08:39:18.458Z,1009.59
2017-02-02T08:40:31.138Z,1009.65
2017-02-02T08:41:43.783Z,1009.6
2017-02-02T08:42:56.813Z,1009.6
2017-02-02T08:44:09.853Z,1009.58
2017-02-02T08:45:22.848Z,1009.51
2017-02-02T08:46:35.486Z,1009.52
2017-02-02T08:47:48.509Z,1009.43
2017-02-02T08:49:01.511Z,1009.48
2017-02-02T08:50:14.552Z,1009.5
2017-02-02T08:51:27.581Z,1009.48
2017-02-02T08:52:40.626Z,1009.42
2017-02-02T08:53:53.640Z,1009.48
2017-02-02T08:55:06.692Z,1009.43
2017-02-02T08:56:19.706Z,1009.45
2017-02-02T08:57:33.006Z,1009.38
2017-02-02T08:58:45.638Z,1009.38
2017-02-02T08:59:58.697Z,1009.33
2017-02-02T09:01:11.768Z,1009.3
2017-02-02T09:02:24.813Z,1009.27
2017-02-02T09:03:37.835Z,1009.24
2017-02-02T09:04:50.882Z,1009.22
2017-02-02T09:06:03.530Z,1009.21
2017-02-02T09:07:16.190Z,1009.27
2017-02-02T09:08:29.200Z,1009.2
2017-02-02T09:09:42.244Z,1009.21
2017-02-02T09:10:54.885Z,1009.23
2017-02-02T09:12:07.880Z,1009.25
2017-02-02T09:13:20.123Z,1009.22
2017-02-02T09:14:33.128Z,1009.18
2017-02-02T09:15:45.774Z,1009.19
2017-02-02T09:16:58.808Z,1009.16
2017-02-02T09:18:11.828Z,1009.2
2017-02-02T09:19:24.860Z,1009.16
2017-02-02T09:20:37.855Z,1009.16
2017-02-02T09:21:50.866Z,1009.17
2017-02-02T09:23:03.872Z,1009.22
2017-02-02T09:24:16.868Z,1009.16
2017-02-02T09:25:29.512Z,1009.21
2017-02-02T09:26:42.511Z,1009.21
2017-02-02T09:27:55.532Z,1009.25
2017-02-02T09:29:08.523Z,1009.27
2017-02-02T09:30:21.573Z,1009.22
2017-02-02T09:31:34.591Z,1009.19
2017-02-02T09:32:47.613Z,1009.28
2017-02-02T09:34:00.634Z,1009.22
2017-02-02T09:35:13.636Z,1009.2
2017-02-02T09:36:26.674Z,1009.24
2017-02-02T09:37:39.724Z,1009.29
2017-02-02T09:38:52.740Z,1009.29
2017-02-02T09:40:05.760Z,1009.31
2017-02-02T09:41:18.803Z,1009.34
2017-02-02T09:42:31.830Z,1009.31
2017-02-02T09:43:44.869Z,1009.35
2017-02-02T09:44:57.922Z,1009.4
2017-02-02T09:46:10.593Z,1009.29
2017-02-02T09:47:23.612Z,1009.26
2017-02-02T09:48:36.656Z,1009.23
2017-02-02T09:49:49.677Z,1009.21
2017-02-02T09:51:02.702Z,1009.24
2017-02-02T09:52:15.748Z,1009.23
2017-02-02T09:53:28.766Z,1009.23
2017-02-02T09:54:41.413Z,1009.19
2017-02-02T09:55:54.461Z,1009.15
2017-02-02T09:57:07.106Z,1009.2
2017-02-02T09:58:19.780Z,1009.18
2017-02-02T09:59:32.824Z,1009.11
2017-02-02T10:00:45.893Z,1009.14
2017-02-02T10:01:58.518Z,1009.13
2017-02-02T10:03:11.528Z,1009.08
2017-02-02T10:04:24.577Z,1009.12
2017-02-02T10:05:37.627Z,1009.19
2017-02-02T10:06:50.673Z,1009.15
2017-02-02T10:08:03.308Z,1009.05
2017-02-02T10:09:15.939Z,1009.02
2017-02-02T10:10:28.960Z,1009.05
2017-02-02T10:11:41.577Z,1009.02
2017-02-02T10:12:54.627Z,1009.01
2017-02-02T10:14:07.247Z,1008.98
2017-02-02T10:15:20.271Z,1009.02
2017-02-02T10:16:33.307Z,1008.99
2017-02-02T10:17:45.982Z,1008.96
2017-02-02T10:18:59.036Z,1008.93
2017-02-02T10:20:12.079Z,1008.95
2017-02-02T10:21:25.124Z,1008.97
2017-02-02T10:22:37.740Z,1008.96
2017-02-02T10:23:50.771Z,1008.98
2017-02-02T10:25:03.800Z,1008.99
2017-02-02T10:26:16.456Z,1008.96
2017-02-02T10:27:29.491Z,1008.95
2017-02-02T10:28:42.140Z,1008.89
2017-02-02T10:29:55.169Z,1008.9
2017-02-02T10:31:07.832Z,1008.86
2017-02-02T10:32:20.505Z,1008.91
2017-02-02T10:33:33.554Z,1008.89
2017-02-02T10:34:46.202Z,1008.89
2017-02-02T10:35:59.249Z,1008.86
2017-02-02T10:37:11.520Z,1008.83
2017-02-02T10:38:24.559Z,1008.83
2017-02-02T10:39:37.588Z,1008.81
2017-02-02T10:40:50.608Z,1008.81
2017-02-02T10:42:03.632Z,1008.77
2017-02-02T10:43:16.697Z,1008.77
2017-02-02T10:44:29.720Z,1008.77
2017-02-02T10:45:42.390Z,1008.81
2017-02-02T10:46:55.059Z,1008.86
2017-02-02T10:48:07.700Z,1008.86
2017-02-02T10:49:20.731Z,1008.86
2017-02-02T10:50:33.764Z,1008.85
2017-02-02T10:51:46.817Z,1008.84
2017-02-02T10:52:59.839Z,1008.8
2017-02-02T10:54:12.887Z,1008.84
2017-02-02T10:55:25.936Z,1008.85
2017-02-02T10:56:38.972Z,1008.75
2017-02-02T10:57:51.998Z,1008.74
2017-02-02T10:59:05.051Z,1008.72
2017-02-02T11:00:17.716Z,1008.69
2017-02-02T11:01:30.761Z,1008.67
2017-02-02T11:02:43.775Z,1008.66
2017-02-02T11:03:56.001Z,1008.6
2017-02-02T11:05:09.047Z,1008.6
2017-02-02T11:06:21.665Z,1008.61
2017-02-02T11:07:34.718Z,1008.58
2017-02-02T11:08:47.760Z,1008.55
2017-02-02T11:10:00.803Z,1008.55
2017-02-02T11:11:12.681Z,1008.54
2017-02-02T11:12:25.722Z,1008.54
2017-02-02T11:13:38.737Z,1008.59
2017-02-02T11:14:51.740Z,1008.56
2017-02-02T11:16:04.386Z,1008.5
2017-02-02T11:17:17.031Z,1008.58
2017-02-02T11:18:29.694Z,1008.49
2017-02-02T11:19:42.344Z,1008.46
2017-02-02T11:20:55.373Z,1008.41
2017-02-02T11:22:08.394Z,1008.49
2017-02-02T11:23:21.465Z,1008.44
2017-02-02T11:24:34.460Z,1008.46
2017-02-02T11:25:47.481Z,1008.43
2017-02-02T11:27:00.519Z,1008.49
2017-02-02T11:28:13.165Z,1008.43
2017-02-02T11:29:26.192Z,1008.47
2017-02-02T11:30:39.231Z,1008.46
2017-02-02T11:31:52.255Z,1008.41
2017-02-02T11:33:05.281Z,1008.37
2017-02-02T11:34:17.926Z,1008.41
2017-02-02T11:35:30.595Z,1008.37
2017-02-02T11:36:43.610Z,1008.4
2017-02-02T11:37:56.640Z,1008.38
2017-02-02T11:39:09.656Z,1008.33
2017-02-02T11:40:22.680Z,1008.33
2017-02-02T11:41:35.953Z,1008.36
2017-02-02T11:42:48.971Z,1008.32
2017-02-02T11:44:01.995Z,1008.31
2017-02-02T11:45:14.618Z,1008.33
2017-02-02T11:46:27.656Z,1008.34
2017-02-02T11:47:40.699Z,1008.27
2017-02-02T11:48:53.348Z,1008.19
2017-02-02T11:50:06.363Z,1008.15
2017-02-02T11:51:19.394Z,1008.12
2017-02-02T11:52:32.473Z,1008.07
2017-02-02T11:53:45.139Z,1008.05
2017-02-02T11:54:58.132Z,1008.07
2017-02-02T11:56:10.381Z,1008.1
2017-02-02T11:57:22.665Z,1008.03
2017-02-02T11:58:35.745Z,1008.04
2017-02-02T11:59:48.411Z,1008.03
2017-02-02T12:01:01.438Z,1008.03
2017-02-02T12:02:14.459Z,1008.02
2017-02-02T12:03:27.483Z,1007.96
2017-02-02T12:04:40.141Z,1007.97
2017-02-02T12:05:53.195Z,1007.94
2017-02-02T12:07:06.217Z,1007.96
2017-02-02T12:08:19.228Z,1007.94
2017-02-02T12:09:32.283Z,1007.92
2017-02-02T12:10:45.356Z,1007.87
2017-02-02T12:11:58.403Z,1007.86
2017-02-02T12:13:11.441Z,1007.89
2017-02-02T12:14:24.484Z,1007.85
2017-02-02T12:15:37.533Z,1007.87
2017-02-02T12:16:50.583Z,1007.83
2017-02-02T12:18:03.231Z,1007.82
2017-02-02T12:19:15.099Z,1007.82
2017-02-02T12:20:28.120Z,1007.78
2017-02-02T12:21:41.134Z,1007.79
2017-02-02T12:22:54.180Z,1007.78
2017-02-02T12:24:07.204Z,1007.74
2017-02-02T12:25:19.879Z,1007.75
2017-02-02T12:26:32.499Z,1007.74
2017-02-02T12:27:45.513Z,1007.78
2017-02-02T12:28:58.515Z,1007.72
2017-02-02T12:30:11.134Z,1007.73
2017-02-02T12:31:23.805Z,1007.75
2017-02-02T12:32:36.845Z,1007.78
2017-02-02T12:33:49.872Z,1007.76
2017-02-02T12:35:02.920Z,1007.71
2017-02-02T12:36:14.814Z,1007.72
2017-02-02T12:37:27.456Z,1007.8
2017-02-02T12:38:40.484Z,1007.76
2017-02-02T12:39:53.504Z,1007.77
2017-02-02T12:41:06.151Z,1007.71
2017-02-02T12:42:18.772Z,1007.82
2017-02-02T12:43:31.844Z,1007.76
2017-02-02T12:44:44.505Z,1007.79
2017-02-02T12:45:57.559Z,1007.82
2017-02-02T12:47:09.808Z,1007.83
2017-02-02T12:48:22.827Z,1007.85
2017-02-02T12:49:35.844Z,1007.81
2017-02-02T12:50:48.846Z,1007.81
2017-02-02T12:52:01.865Z,1007.83
2017-02-02T12:53:14.905Z,1007.85
2017-02-02T12:54:27.580Z,1007.83
2017-02-02T12:55:40.253Z,1007.83
2017-02-02T12:56:52.876Z,1007.8
2017-02-02T12:58:05.520Z,1007.79
2017-02-02T12:59:18.538Z,1007.76
2017-02-02T13:00:31.585Z,1007.75
2017-02-02T13:01:44.228Z,1007.75
2017-02-02T13:02:57.276Z,1007.68
2017-02-02T13:04:09.929Z,1007.67
2017-02-02T13:05:23.010Z,1007.62
2017-02-02T13:06:36.065Z,1007.66
2017-02-02T13:07:48.685Z,1007.64
2017-02-02T13:09:01.682Z,1007.63
2017-02-02T13:10:14.717Z,1007.58
2017-02-02T13:11:27.723Z,1007.6
2017-02-02T13:12:40.744Z,1007.58
2017-02-02T13:13:53.779Z,1007.59
2017-02-02T13:15:06.814Z,1007.56
2017-02-02T13:16:19.829Z,1007.54
2017-02-02T13:17:32.878Z,1007.54
2017-02-02T13:18:45.524Z,1007.55
2017-02-02T13:19:58.568Z,1007.55
2017-02-02T13:21:11.587Z,1007.52
2017-02-02T13:22:24.585Z,1007.46
2017-02-02T13:23:37.662Z,1007.47
2017-02-02T13:24:50.692Z,1007.48
2017-02-02T13:26:03.730Z,1007.43
2017-02-02T13:27:16.341Z,1007.41
2017-02-02T13:28:29.366Z,1007.42
2017-02-02T13:29:42.383Z,1007.36
2017-02-02T13:30:55.425Z,1007.33
2017-02-02T13:32:07.698Z,1007.28
2017-02-02T13:33:20.712Z,1007.27
2017-02-02T13:34:33.731Z,1007.22
2017-02-02T13:35:46.737Z,1007.24
2017-02-02T13:36:59.763Z,1007.22
2017-02-02T13:38:12.430Z,1007.22
2017-02-02T13:39:25.477Z,1007.18
2017-02-02T13:40:38.524Z,1007.2
2017-02-02T13:41:51.566Z,1007.21
2017-02-02T13:43:04.616Z,1007.17
2017-02-02T13:44:17.657Z,1007.2
2017-02-02T13:45:30.330Z,1007.23
2017-02-02T13:46:43.371Z,1007.23
2017-02-02T13:47:56.027Z,1007.16
2017-02-02T13:49:08.673Z,1007.18
2017-02-02T13:50:21.330Z,1007.13
2017-02-02T13:51:34.360Z,1007.19
2017-02-02T13:52:47.400Z,1007.19
2017-02-02T13:54:00.431Z,1007.2
2017-02-02T13:55:13.124Z,1007.17
2017-02-02T13:56:26.142Z,1007.19
2017-02-02T13:57:38.788Z,1007.17
2017-02-02T13:58:51.826Z,1007.14
2017-02-02T14:00:04.885Z,1007.1
2017-02-02T14:01:17.930Z,1007.09
2017-02-02T14:02:30.946Z,1007.08
2017-02-02T14:03:43.993Z,1007.11
2017-02-02T14:04:57.034Z,1007.11
2017-02-02T14:06:10.077Z,1007.07
2017-02-02T14:07:23.134Z,1007.03
2017-02-02T14:08:36.176Z,1007.05
2017-02-02T14:09:49.219Z,1007.04
2017-02-02T14:11:02.246Z,1007.03
2017-02-02T14:12:15.264Z,1007.02
2017-02-02T14:13:28.292Z,1006.99
2017-02-02T14:14:41.323Z,1006.99
2017-02-02T14:15:54.356Z,1006.99
2017-02-02T14:17:07.368Z,1006.99
2017-02-02T14:18:20.423Z,1007
2017-02-02T14:19:33.439Z,1006.98
2017-02-02T14:20:46.464Z,1006.96
2017-02-02T14:21:59.474Z,1007
2017-02-02T14:23:12.502Z,1006.94
2017-02-02T14:24:25.523Z,1006.95
2017-02-02T14:25:38.188Z,1007
2017-02-02T14:26:50.847Z,1006.94
2017-02-02T14:28:03.491Z,1006.98
2017-02-02T14:29:16.536Z,1006.94
2017-02-02T14:30:29.531Z,1006.92
2017-02-02T14:31:42.604Z,1006.87
2017-02-02T14:32:55.272Z,1006.9
2017-02-02T14:34:08.294Z,1006.86
2017-02-02T14:35:20.938Z,1006.8
2017-02-02T14:36:34.002Z,1006.81
2017-02-02T14:37:47.057Z,1006.84
2017-02-02T14:39:00.092Z,1006.82
2017-02-02T14:40:12.724Z,1006.8
2017-02-02T14:41:25.761Z,1006.77
2017-02-02T14:42:38.761Z,1006.86
2017-02-02T14:43:51.807Z,1006.83
2017-02-02T14:45:04.470Z,1006.83